Time;durP1;ratioP1;P1;durP2;ratioP2;P2;SDS_P1;SDS_P2;PMS_P1;PMS_P2;Temp;Humidity;BMP_temperature;BMP_pressure;BME280_temperature;BME280_humidity;BME280_pressure;Samples;Min_cycle;Max_cycle;Signal;HPM_P1;HPM_P2
2020/12/14 00:02:22;;;;;;;3.03;1.40;;;9.30;99.90;;;;;;4977195;28;20185;-87
2020/12/14 00:04:48;;;;;;;5.87;1.30;;;9.10;99.90;;;;;;4976844;28;20213;-87
2020/12/14 00:07:13;;;;;;;5.03;1.20;;;9.10;99.90;;;;;;4977283;28;20189;-87
2020/12/14 00:09:39;;;;;;;3.73;1.43;;;9.20;99.90;;;;;;4977377;28;20174;-87
2020/12/14 00:12:04;;;;;;;3.87;1.30;;;9.30;99.90;;;;;;4977141;28;20185;-88
2020/12/14 00:14:30;;;;;;;3.43;1.20;;;9.30;99.90;;;;;;4994057;28;20348;-87
2020/12/14 00:16:55;;;;;;;2.87;1.50;;;9.30;99.90;;;;;;4977173;28;20186;-87
2020/12/14 00:19:22;;;;;;;7.00;1.30;;;9.40;99.90;;;;;;4976888;28;20550;-86
2020/12/14 00:21:52;;;;;;;2.97;1.30;;;9.30;99.90;;;;;;4977139;28;20186;-84
2020/12/14 00:24:17;;;;;;;5.17;1.40;;;9.30;99.90;;;;;;4976830;28;20225;-86
2020/12/14 00:26:43;;;;;;;5.77;1.50;;;9.30;99.90;;;;;;4977037;28;20217;-87
2020/12/14 00:29:08;;;;;;;5.40;1.23;;;9.30;99.90;;;;;;4977004;28;20590;-87
2020/12/14 00:31:34;;;;;;;3.37;1.63;;;9.40;99.90;;;;;;4977027;28;20182;-87
2020/12/14 00:33:59;;;;;;;3.13;1.60;;;9.30;99.90;;;;;;4976438;28;20191;-87
2020/12/14 00:36:26;;;;;;;3.80;1.57;;;9.30;99.90;;;;;;4976947;28;20201;-87
2020/12/14 00:38:52;;;;;;;5.33;1.67;;;9.30;99.90;;;;;;4976956;28;20194;-87
2020/12/14 00:41:19;;;;;;;3.63;1.53;;;9.30;99.90;;;;;;4976768;28;20273;-87
2020/12/14 00:43:46;;;;;;;3.07;1.20;;;9.40;99.90;;;;;;4976763;28;20205;-88
2020/12/14 00:46:14;;;;;;;4.60;1.70;;;9.40;99.90;;;;;;4976637;28;20681;-85
2020/12/14 00:48:39;;;;;;;4.97;1.37;;;9.40;99.90;;;;;;4976656;28;20187;-87
2020/12/14 00:51:05;;;;;;;3.00;1.90;;;9.50;99.90;;;;;;4976912;28;20634;-87
2020/12/14 00:53:32;;;;;;;5.10;1.80;;;9.40;99.90;;;;;;4997435;28;20648;-87
2020/12/14 00:56:01;;;;;;;4.37;1.70;;;9.40;99.90;;;;;;4980111;28;20213;-84
2020/12/14 00:58:26;;;;;;;4.60;1.33;;;9.40;99.90;;;;;;4980151;28;20178;-87
2020/12/14 01:00:52;;;;;;;5.80;1.83;;;9.40;99.90;;;;;;4980055;28;20181;-87
2020/12/14 01:03:18;;;;;;;3.53;1.73;;;9.40;99.90;;;;;;4979824;28;20208;-85
2020/12/14 01:05:44;;;;;;;3.03;1.50;;;9.50;99.90;;;;;;4997359;28;20179;-85
2020/12/14 01:08:09;;;;;;;5.13;1.53;;;9.60;99.90;;;;;;4979935;28;20226;-86
2020/12/14 01:10:35;;;;;;;6.83;1.77;;;9.60;99.90;;;;;;4979902;28;20606;-85
2020/12/14 01:13:00;;;;;;;3.63;1.30;;;9.60;99.90;;;;;;4979878;28;20181;-87
2020/12/14 01:15:28;;;;;;;5.93;1.87;;;9.70;99.90;;;;;;4996921;28;20304;-87
2020/12/14 01:17:53;;;;;;;4.93;1.40;;;9.70;99.90;;;;;;4979559;28;20212;-87
2020/12/14 01:20:19;;;;;;;2.43;1.50;;;9.60;99.90;;;;;;4979701;28;20598;-87
2020/12/14 01:22:44;;;;;;;4.50;1.70;;;9.40;99.90;;;;;;4979742;28;20174;-85
2020/12/14 01:25:10;;;;;;;3.97;1.70;;;9.40;99.90;;;;;;4979590;28;20269;-86
2020/12/14 01:27:36;;;;;;;2.77;1.63;;;9.40;99.90;;;;;;4979734;28;20189;-86
2020/12/14 01:30:02;;;;;;;6.50;1.67;;;9.50;99.90;;;;;;4979777;28;20269;-87
2020/12/14 01:32:27;;;;;;;3.40;1.50;;;9.50;99.90;;;;;;4978968;28;20208;-86
2020/12/14 01:34:53;;;;;;;4.53;1.43;;;9.50;99.90;;;;;;4979419;28;20759;-87
2020/12/14 01:37:18;;;;;;;5.57;1.40;;;9.60;99.90;;;;;;4979376;28;20654;-86
2020/12/14 01:39:44;;;;;;;5.33;1.57;;;9.50;99.90;;;;;;4996554;28;20178;-86
2020/12/14 01:42:09;;;;;;;1.53;1.17;;;9.60;99.90;;;;;;4979397;28;20194;-85
2020/12/14 01:44:36;;;;;;;3.37;1.43;;;9.60;99.90;;;;;;4979133;28;20638;-87
2020/12/14 01:47:05;;;;;;;6.50;1.50;;;9.70;99.90;;;;;;4979033;28;20203;-87
2020/12/14 01:49:31;;;;;;;4.03;1.53;;;9.70;99.90;;;;;;4979251;28;20214;-88
2020/12/14 01:51:56;;;;;;;3.93;1.40;;;9.50;99.90;;;;;;4978874;28;20664;-87
2020/12/14 01:54:36;;;;;;;2.50;1.30;;;9.50;99.90;;;;;;4978940;28;20729;-87
2020/12/14 01:57:02;;;;;;;5.33;1.63;;;9.60;99.90;;;;;;4979103;28;20215;-86
2020/12/14 01:59:28;;;;;;;3.23;1.33;;;9.60;99.90;;;;;;4979360;28;20262;-86
2020/12/14 02:01:54;;;;;;;1.90;1.47;;;9.60;99.90;;;;;;4978770;28;20202;-85
2020/12/14 02:04:19;;;;;;;3.60;2.10;;;9.50;99.90;;;;;;4978165;28;20187;-86
2020/12/14 02:06:46;;;;;;;5.33;1.47;;;9.50;99.90;;;;;;4978684;28;20195;-86
2020/12/14 02:09:12;;;;;;;4.30;1.90;;;9.60;99.90;;;;;;4978694;28;20197;-84
2020/12/14 02:11:37;;;;;;;1.97;1.43;;;9.50;99.90;;;;;;4980136;28;20186;-83
2020/12/14 02:14:03;;;;;;;2.00;1.60;;;9.50;99.90;;;;;;4987185;28;20182;-83
2020/12/14 02:16:29;;;;;;;4.33;1.30;;;9.50;99.90;;;;;;4986071;28;20257;-84
2020/12/14 02:18:56;;;;;;;2.33;1.40;;;9.60;99.90;;;;;;4983368;28;20704;-87
2020/12/14 02:21:22;;;;;;;3.10;1.47;;;9.50;99.90;;;;;;4978691;28;20177;-86
2020/12/14 02:23:47;;;;;;;2.97;1.57;;;9.50;99.90;;;;;;4978495;28;20191;-86
2020/12/14 02:26:13;;;;;;;4.70;2.23;;;9.50;99.90;;;;;;4978539;28;20220;-84
2020/12/14 02:28:39;;;;;;;4.47;1.60;;;9.60;99.90;;;;;;4978321;28;20188;-87
2020/12/14 02:31:05;;;;;;;3.97;1.33;;;9.50;99.90;;;;;;4978481;28;20232;-84
2020/12/14 02:33:30;;;;;;;5.37;2.87;;;9.50;99.90;;;;;;4978258;28;20193;-87
2020/12/14 02:35:56;;;;;;;4.00;1.50;;;9.40;99.90;;;;;;4978277;28;20206;-87
2020/12/14 02:38:22;;;;;;;4.50;1.60;;;9.40;99.90;;;;;;4978369;28;20524;-85
2020/12/14 02:40:49;;;;;;;2.97;1.50;;;9.40;99.90;;;;;;4978377;28;20178;-85
2020/12/14 02:43:15;;;;;;;5.67;1.70;;;9.40;99.90;;;;;;4978143;28;20194;-84
2020/12/14 02:45:40;;;;;;;3.17;1.30;;;9.50;99.90;;;;;;4977918;28;20282;-84
2020/12/14 02:48:07;;;;;;;2.80;1.30;;;9.40;99.90;;;;;;4977649;28;20213;-84
2020/12/14 02:50:35;;;;;;;5.17;1.70;;;9.50;99.90;;;;;;4978179;28;20214;-85
2020/12/14 02:53:04;;;;;;;4.33;1.53;;;9.50;99.90;;;;;;4978077;28;20182;-85
2020/12/14 02:55:31;;;;;;;4.10;1.37;;;9.60;99.90;;;;;;4978152;28;20308;-85
2020/12/14 02:57:56;;;;;;;4.77;1.60;;;9.70;99.90;;;;;;4977857;28;20182;-84
2020/12/14 03:00:23;;;;;;;3.50;1.27;;;9.80;99.90;;;;;;4977727;28;20204;-87
2020/12/14 03:02:49;;;;;;;4.00;1.90;;;9.80;99.90;;;;;;4977755;28;20189;-86
2020/12/14 03:05:14;;;;;;;2.97;1.40;;;9.70;99.90;;;;;;4977764;28;20186;-86
2020/12/14 03:07:40;;;;;;;3.37;1.70;;;9.60;99.90;;;;;;4977735;28;20182;-84
2020/12/14 03:10:06;;;;;;;3.27;1.50;;;9.50;99.90;;;;;;4977722;28;20193;-85
2020/12/14 03:12:32;;;;;;;4.00;1.90;;;9.50;99.90;;;;;;4977676;28;20205;-84
2020/12/14 03:14:59;;;;;;;4.50;1.70;;;9.50;99.90;;;;;;4976990;28;20677;-85
2020/12/14 03:17:25;;;;;;;2.93;1.70;;;9.60;99.90;;;;;;4977549;28;20182;-85
2020/12/14 03:19:50;;;;;;;4.60;1.83;;;9.60;99.90;;;;;;4977520;28;20692;-85
2020/12/14 03:22:16;;;;;;;2.80;2.10;;;9.60;99.90;;;;;;4977519;28;20559;-86
2020/12/14 03:24:42;;;;;;;2.17;1.63;;;9.60;99.90;;;;;;4977404;28;20551;-85
2020/12/14 03:27:08;;;;;;;2.50;1.70;;;9.60;99.90;;;;;;4977431;28;20182;-85
2020/12/14 03:29:33;;;;;;;2.37;1.60;;;9.70;99.90;;;;;;4977470;28;20299;-85
2020/12/14 03:31:59;;;;;;;2.87;2.13;;;9.70;99.90;;;;;;4977188;28;20186;-85
2020/12/14 03:34:24;;;;;;;3.83;2.00;;;9.80;99.90;;;;;;4977356;28;20186;-85
2020/12/14 03:36:50;;;;;;;5.67;2.03;;;9.80;99.90;;;;;;4977262;28;20186;-84
2020/12/14 03:39:16;;;;;;;3.63;1.67;;;9.70;99.90;;;;;;4977337;28;20210;-85
2020/12/14 03:41:41;;;;;;;2.77;1.70;;;9.70;99.90;;;;;;4977317;28;20545;-85
2020/12/14 03:44:07;;;;;;;2.50;1.57;;;9.80;99.90;;;;;;4977242;28;20222;-85
2020/12/14 03:46:35;;;;;;;3.87;1.90;;;9.70;99.90;;;;;;4977371;28;20198;-86
2020/12/14 03:49:01;;;;;;;4.47;2.10;;;9.70;99.90;;;;;;4994440;28;20572;-86
2020/12/14 03:51:27;;;;;;;3.37;1.83;;;9.70;99.90;;;;;;4977294;28;20178;-86
2020/12/14 03:53:55;;;;;;;2.63;1.90;;;9.70;99.90;;;;;;4977313;28;20224;-87
2020/12/14 03:56:24;;;;;;;5.40;2.10;;;9.70;99.90;;;;;;4977091;28;20228;-87
2020/12/14 03:58:50;;;;;;;7.43;2.27;;;9.80;99.90;;;;;;4977131;28;20185;-85
2020/12/14 04:01:23;;;;;;;4.50;1.80;;;9.90;99.90;;;;;;4994568;28;20669;-85
2020/12/14 04:03:50;;;;;;;6.00;2.13;;;9.90;99.90;;;;;;4976833;28;20178;-85
2020/12/14 04:06:17;;;;;;;6.47;2.20;;;9.90;99.90;;;;;;4977239;28;20697;-85
2020/12/14 04:08:43;;;;;;;6.00;2.33;;;9.90;99.90;;;;;;4977097;28;20193;-84
2020/12/14 04:11:08;;;;;;;8.53;2.37;;;10.00;99.90;;;;;;4976979;28;20184;-84
2020/12/14 04:13:34;;;;;;;5.50;2.00;;;10.00;99.90;;;;;;4976939;28;20166;-84
2020/12/14 04:15:59;;;;;;;4.20;2.03;;;10.00;99.90;;;;;;4976860;28;20230;-84
2020/12/14 04:18:25;;;;;;;3.70;2.07;;;10.00;99.90;;;;;;4994295;28;20178;-85
2020/12/14 04:20:50;;;;;;;7.30;2.27;;;10.00;99.90;;;;;;4976900;28;20221;-84
2020/12/14 04:23:16;;;;;;;4.37;2.00;;;10.00;99.90;;;;;;4977120;28;20225;-84
2020/12/14 04:25:41;;;;;;;4.97;2.20;;;10.00;99.90;;;;;;4976752;28;20185;-85
2020/12/14 04:28:07;;;;;;;2.73;2.03;;;9.90;99.90;;;;;;4980144;28;20208;-85
2020/12/14 04:30:32;;;;;;;4.57;1.93;;;10.00;99.90;;;;;;4997997;28;20185;-85
2020/12/14 04:32:58;;;;;;;8.03;1.90;;;10.10;99.90;;;;;;4997915;28;20200;-84
2020/12/14 04:35:25;;;;;;;4.33;1.90;;;10.10;99.90;;;;;;4980286;28;20226;-85
2020/12/14 04:37:50;;;;;;;4.40;2.10;;;10.10;99.90;;;;;;4980518;28;20193;-85
2020/12/14 04:40:16;;;;;;;5.77;2.10;;;10.20;99.90;;;;;;4980007;28;20642;-85
2020/12/14 04:42:44;;;;;;;5.03;1.90;;;10.20;99.90;;;;;;4980408;28;20658;-85
2020/12/14 04:45:12;;;;;;;5.13;2.13;;;10.20;99.90;;;;;;4980250;28;20177;-85
2020/12/14 04:47:38;;;;;;;3.53;1.73;;;10.20;99.90;;;;;;4980564;28;20198;-85
2020/12/14 04:50:04;;;;;;;7.23;2.23;;;10.30;99.90;;;;;;4980348;28;20269;-84
2020/12/14 04:52:34;;;;;;;5.30;1.83;;;10.40;99.90;;;;;;4984366;28;20212;-85
2020/12/14 04:55:01;;;;;;;3.23;1.80;;;10.40;99.90;;;;;;4984653;28;20268;-84
2020/12/14 04:57:30;;;;;;;3.73;1.70;;;10.40;99.90;;;;;;4983964;28;20689;-85
2020/12/14 04:59:56;;;;;;;3.17;1.40;;;10.40;99.90;;;;;;4980056;28;20196;-85
2020/12/14 05:02:22;;;;;;;6.33;1.77;;;10.50;99.90;;;;;;4980028;28;20186;-85
2020/12/14 05:04:47;;;;;;;5.33;1.53;;;10.40;99.90;;;;;;4979958;28;20191;-86
2020/12/14 05:07:14;;;;;;;3.27;1.50;;;10.40;99.90;;;;;;4980084;28;20228;-85
2020/12/14 05:09:41;;;;;;;3.00;2.10;;;10.50;99.90;;;;;;4979752;28;20262;-85
2020/12/14 05:12:24;;;;;;;1.80;1.37;;;10.50;99.90;;;;;;4979896;28;20197;-83
2020/12/14 05:14:51;;;;;;;3.40;1.50;;;10.50;99.90;;;;;;4997026;28;20206;-84
2020/12/14 05:17:23;;;;;;;3.00;1.77;;;10.50;99.90;;;;;;4979608;28;20256;-84
2020/12/14 05:19:49;;;;;;;1.67;1.30;;;10.60;99.90;;;;;;4979882;28;20178;-85
2020/12/14 05:22:18;;;;;;;4.00;1.90;;;10.70;99.90;;;;;;4979760;28;20212;-85
2020/12/14 05:24:50;;;;;;;4.83;1.50;;;10.70;99.90;;;;;;4979506;28;20182;-85
2020/12/14 05:27:32;;;;;;;2.60;1.27;;;10.60;99.90;;;;;;4979743;28;20182;-85
2020/12/14 05:29:58;;;;;;;3.63;1.50;;;10.60;99.90;;;;;;4979721;28;20174;-85
2020/12/14 05:32:24;;;;;;;2.67;1.30;;;10.60;99.90;;;;;;4979587;28;20224;-85
2020/12/14 05:34:49;;;;;;;2.97;1.57;;;10.60;99.90;;;;;;4979301;28;20223;-85
2020/12/14 05:37:16;;;;;;;6.47;1.33;;;10.60;99.90;;;;;;4979462;28;20639;-85
2020/12/14 05:39:44;;;;;;;18.87;1.30;;;10.50;99.90;;;;;;4978256;28;20755;-85
2020/12/14 05:42:16;;;;;;;1.47;1.20;;;10.40;99.90;;;;;;4996614;28;20273;-85
2020/12/14 05:44:44;;;;;;;3.77;1.20;;;10.20;99.90;;;;;;4978794;28;20185;-84
2020/12/14 05:47:30;;;;;;;6.10;1.47;;;10.30;99.90;;;;;;4978873;28;20206;-86
2020/12/14 05:49:57;;;;;;;3.03;1.20;;;10.40;99.90;;;;;;4996121;28;20181;-87
2020/12/14 05:52:30;;;;;;;4.47;1.67;;;10.30;99.90;;;;;;4978774;28;20198;-86
2020/12/14 05:54:56;;;;;;;3.00;1.20;;;10.30;99.90;;;;;;4978954;28;20284;-86
2020/12/14 05:57:33;;;;;;;1.80;1.10;;;10.30;99.90;;;;;;4978896;28;20189;-86
2020/12/14 06:00:08;;;;;;;2.67;1.10;;;10.20;99.90;;;;;;4978730;28;20173;-87
2020/12/14 06:02:34;;;;;;;2.53;1.30;;;10.20;99.90;;;;;;4978816;28;20181;-87
2020/12/14 06:05:04;;;;;;;2.63;1.47;;;10.30;99.90;;;;;;4978441;28;20193;-85
2020/12/14 06:07:31;;;;;;;1.47;0.97;;;10.30;99.90;;;;;;4995428;28;20189;-85
2020/12/14 06:10:24;;;;;;;5.30;1.30;;;10.30;99.90;;;;;;4969837;28;20186;-85
2020/12/14 06:12:56;;;;;;;7.43;1.30;;;10.30;99.90;;;;;;4973049;28;20729;-85
2020/12/14 06:15:27;;;;;;;4.10;1.30;;;10.40;99.90;;;;;;4978874;28;20254;-84
2020/12/14 06:17:55;;;;;;;2.27;1.10;;;10.40;99.90;;;;;;4978180;28;20190;-85
2020/12/14 06:20:23;;;;;;;1.53;1.10;;;10.40;99.90;;;;;;4995143;28;20673;-84
2020/12/14 06:23:04;;;;;;;2.87;1.00;;;10.40;99.90;;;;;;4977363;28;20196;-84
2020/12/14 06:25:31;;;;;;;2.03;1.10;;;10.40;99.90;;;;;;4978255;28;20190;-84
2020/12/14 06:28:16;;;;;;;3.03;1.30;;;10.40;99.90;;;;;;4977747;28;20178;-84
2020/12/14 06:30:51;;;;;;;4.33;1.10;;;10.40;99.90;;;;;;4975628;28;20181;-84
2020/12/14 06:33:41;;;;;;;7.60;1.10;;;10.30;99.90;;;;;;4976493;28;20625;-84
2020/12/14 06:36:24;;;;;;;2.97;1.20;;;10.40;99.90;;;;;;4976834;28;20237;-85
2020/12/14 06:38:51;;;;;;;2.10;0.90;;;10.40;99.90;;;;;;4975818;28;20205;-85
2020/12/14 06:41:21;;;;;;;1.87;0.90;;;10.40;99.90;;;;;;4977841;28;20237;-85
2020/12/14 06:43:49;;;;;;;1.30;0.90;;;10.40;99.90;;;;;;4993782;28;20204;-85
2020/12/14 06:46:26;;;;;;;1.27;1.10;;;10.50;99.90;;;;;;4977293;28;20225;-87
2020/12/14 06:48:53;;;;;;;2.90;0.90;;;10.50;99.90;;;;;;4977750;28;20550;-86
2020/12/14 06:51:18;;;;;;;1.57;1.03;;;10.50;99.90;;;;;;4976984;28;20235;-86
2020/12/14 06:53:52;;;;;;;2.60;0.80;;;10.40;99.90;;;;;;4977985;28;20178;-86
2020/12/14 06:56:40;;;;;;;1.90;1.23;;;10.50;99.90;;;;;;4976583;28;20225;-85
2020/12/14 06:59:37;;;;;;;1.20;0.90;;;10.50;99.90;;;;;;4976738;28;20175;-86
2020/12/14 07:02:11;;;;;;;2.23;0.90;;;10.50;99.90;;;;;;4961880;28;20186;-85
2020/12/14 07:04:39;;;;;;;2.50;0.80;;;10.50;99.90;;;;;;4977437;28;20190;-85
2020/12/14 07:07:05;;;;;;;1.67;0.77;;;10.50;99.90;;;;;;4977688;28;20188;-83
2020/12/14 07:09:36;;;;;;;1.17;0.60;;;10.50;99.90;;;;;;4977612;28;20273;-84
2020/12/14 07:12:11;;;;;;;3.33;0.90;;;10.60;99.90;;;;;;4994716;28;20189;-84
2020/12/14 07:14:54;;;;;;;3.17;0.90;;;10.70;99.90;;;;;;4968257;28;20673;-84
2020/12/14 07:17:26;;;;;;;1.00;0.80;;;10.60;99.90;;;;;;4969923;28;20738;-83
2020/12/14 07:19:53;;;;;;;4.87;0.90;;;10.60;99.90;;;;;;4958606;28;20190;-86
2020/12/14 07:22:23;;;;;;;9.60;1.50;;;10.60;99.90;;;;;;4964373;28;20217;-84
2020/12/14 07:25:01;;;;;;;3.27;1.20;;;10.60;99.90;;;;;;4966326;28;20182;-83
2020/12/14 07:27:27;;;;;;;10.90;1.97;;;10.70;99.90;;;;;;4968471;28;20193;-84
2020/12/14 07:30:26;;;;;;;68.80;8.83;;;10.70;99.90;;;;;;4968547;28;20173;-84
2020/12/14 07:32:52;;;;;;;2.07;1.23;;;10.80;99.90;;;;;;4925605;28;20189;-83
2020/12/14 07:35:17;;;;;;;1.37;1.00;;;10.80;99.90;;;;;;4979011;28;20240;-85
2020/12/14 07:37:43;;;;;;;1.43;1.10;;;10.90;99.90;;;;;;4997949;28;20182;-86
2020/12/14 07:40:13;;;;;;;1.90;1.27;;;10.80;99.90;;;;;;4979939;28;20197;-85
2020/12/14 07:42:49;;;;;;;2.60;1.40;;;11.00;99.90;;;;;;4977436;28;20203;-84
2020/12/14 07:45:23;;;;;;;2.67;1.27;;;10.90;99.90;;;;;;4977157;28;20249;-84
2020/12/14 07:47:52;;;;;;;5.43;1.40;;;11.00;99.90;;;;;;4977073;28;20190;-84
2020/12/14 07:50:23;;;;;;;3.63;1.40;;;11.00;99.90;;;;;;4976420;28;20185;-84
2020/12/14 07:52:50;;;;;;;3.23;1.20;;;10.90;99.90;;;;;;4977264;28;20647;-84
2020/12/14 07:55:17;;;;;;;2.67;1.40;;;10.90;99.90;;;;;;4977117;28;20253;-86
2020/12/14 07:57:45;;;;;;;2.40;1.50;;;10.90;99.90;;;;;;4977257;28;20186;-84
2020/12/14 08:00:24;;;;;;;2.27;1.60;;;10.90;99.90;;;;;;4977027;28;20181;-82
2020/12/14 08:02:51;;;;;;;3.83;1.83;;;10.90;99.90;;;;;;4979987;28;20224;-84
2020/12/14 08:05:18;;;;;;;5.17;1.93;;;10.90;99.90;;;;;;4980973;28;20537;-86
2020/12/14 08:07:56;;;;;;;2.30;1.90;;;10.90;99.90;;;;;;4980853;28;20192;-86
2020/12/14 08:10:32;;;;;;;3.77;1.60;;;10.90;99.90;;;;;;4980770;28;20210;-84
2020/12/14 08:13:09;;;;;;;3.03;2.07;;;10.90;99.90;;;;;;4980892;28;20236;-86
2020/12/14 08:15:36;;;;;;;3.43;2.10;;;10.90;99.90;;;;;;4980538;28;20212;-87
2020/12/14 08:18:06;;;;;;;5.33;2.00;;;11.00;99.90;;;;;;4980529;28;20183;-86
2020/12/14 08:20:39;;;;;;;2.30;1.83;;;10.90;99.90;;;;;;4981032;28;20178;-87
2020/12/14 08:23:20;;;;;;;2.80;2.00;;;10.90;99.90;;;;;;4997942;28;20174;-84
2020/12/14 08:25:54;;;;;;;3.00;1.70;;;11.00;99.90;;;;;;4980424;28;20182;-84
2020/12/14 08:28:31;;;;;;;6.33;2.10;;;11.10;99.90;;;;;;4980571;28;20219;-84
2020/12/14 08:30:59;;;;;;;2.83;1.73;;;11.10;99.90;;;;;;4980582;28;20213;-84
2020/12/14 08:33:25;;;;;;;2.33;1.80;;;11.10;99.90;;;;;;4980472;28;20198;-84
2020/12/14 08:35:52;;;;;;;3.13;2.13;;;11.10;99.90;;;;;;4980318;28;20218;-84
2020/12/14 08:38:20;;;;;;;4.90;1.90;;;10.90;99.90;;;;;;4980409;28;20218;-84
2020/12/14 08:41:13;;;;;;;2.10;1.90;;;10.90;99.90;;;;;;4980516;28;20182;-84
2020/12/14 08:43:39;;;;;;;6.50;2.07;;;11.00;99.90;;;;;;4975772;28;20277;-87
2020/12/14 08:46:10;;;;;;;10.03;2.07;;;11.00;99.90;;;;;;4979881;28;20198;-86
2020/12/14 08:48:50;;;;;;;3.37;1.73;;;11.10;99.90;;;;;;4980422;28;20206;-86
2020/12/14 08:51:33;;;;;;;7.57;2.83;;;11.20;99.90;;;;;;4980295;28;20197;-86
2020/12/14 08:54:17;;;;;;;16.87;2.83;;;11.30;99.90;;;;;;4980114;28;20645;-86
2020/12/14 08:56:44;;;;;;;9.17;2.30;;;11.20;99.90;;;;;;4980419;28;20245;-86
2020/12/14 08:59:15;;;;;;;15.63;3.23;;;11.20;99.90;;;;;;4980040;28;20662;-86
2020/12/14 09:01:56;;;;;;;16.83;2.90;;;11.20;99.90;;;;;;4979932;28;20178;-86
2020/12/14 09:04:31;;;;;;;23.20;2.63;;;11.10;99.90;;;;;;4980138;28;20178;-86
2020/12/14 09:06:57;;;;;;;16.93;3.63;;;11.10;99.90;;;;;;4979878;28;20190;-84
2020/12/14 09:09:38;;;;;;;35.87;3.80;;;11.10;99.90;;;;;;4979802;28;20224;-87
2020/12/14 09:12:10;;;;;;;15.67;2.80;;;11.00;99.90;;;;;;4996949;28;20174;-86
2020/12/14 09:14:36;;;;;;;30.80;4.23;;;11.00;99.90;;;;;;4979822;28;20316;-84
2020/12/14 09:17:04;;;;;;;8.27;2.53;;;11.00;99.90;;;;;;4979382;28;20186;-86
2020/12/14 09:19:34;;;;;;;19.27;3.43;;;11.10;99.90;;;;;;4979559;28;20182;-86
2020/12/14 09:22:01;;;;;;;14.47;3.07;;;11.20;99.90;;;;;;4979399;28;20260;-86
2020/12/14 09:24:34;;;;;;;17.63;3.60;;;11.20;99.90;;;;;;4979408;28;20186;-86
2020/12/14 09:27:12;;;;;;;13.40;3.30;;;11.30;99.90;;;;;;4979402;28;20185;-86
2020/12/14 09:29:39;;;;;;;25.47;3.50;;;11.20;99.90;;;;;;4979399;28;20192;-85
2020/12/14 09:32:05;;;;;;;25.13;3.97;;;11.20;99.90;;;;;;4979106;28;20178;-85
2020/12/14 09:34:32;;;;;;;12.30;2.83;;;11.40;99.90;;;;;;4979221;28;20180;-85
2020/12/14 09:36:59;;;;;;;18.17;3.43;;;11.40;99.90;;;;;;4979427;28;20205;-82
2020/12/14 09:39:26;;;;;;;6.70;2.97;;;11.50;99.90;;;;;;4979228;28;20198;-85
2020/12/14 09:41:53;;;;;;;8.40;2.40;;;11.50;99.90;;;;;;4979123;28;20260;-85
2020/12/14 09:44:19;;;;;;;10.00;2.67;;;11.40;99.90;;;;;;4978676;28;20178;-86
2020/12/14 09:46:45;;;;;;;13.77;3.00;;;11.40;99.90;;;;;;4978775;28;20221;-86
2020/12/14 09:49:11;;;;;;;9.37;2.77;;;11.30;99.90;;;;;;4978928;28;20174;-83
2020/12/14 09:51:37;;;;;;;21.27;3.10;;;11.30;99.90;;;;;;4977915;28;20525;-83
2020/12/14 09:54:04;;;;;;;34.90;4.10;;;11.30;99.90;;;;;;4978678;28;20182;-84
2020/12/14 09:56:30;;;;;;;16.60;3.13;;;11.40;99.90;;;;;;4996110;28;20224;-86
2020/12/14 09:58:56;;;;;;;19.60;3.17;;;11.60;99.90;;;;;;4978597;28;20236;-83
2020/12/14 10:01:24;;;;;;;32.70;4.03;;;11.60;99.90;;;;;;4978665;28;20183;-86
2020/12/14 10:03:51;;;;;;;20.87;3.20;;;11.70;99.90;;;;;;4978849;28;20188;-84
2020/12/14 10:06:17;;;;;;;33.33;4.80;;;11.80;99.90;;;;;;4978802;28;20193;-84
2020/12/14 10:08:43;;;;;;;12.00;3.73;;;11.60;99.90;;;;;;4978794;28;20221;-84
2020/12/14 10:11:09;;;;;;;10.03;2.67;;;11.70;99.90;;;;;;4978637;28;20184;-84
2020/12/14 10:13:36;;;;;;;31.43;3.50;;;11.80;99.90;;;;;;4978550;28;20192;-84
2020/12/14 10:16:03;;;;;;;26.93;4.10;;;12.20;99.90;;;;;;4978910;28;20244;-84
2020/12/14 10:18:30;;;;;;;20.90;4.27;;;12.50;99.90;;;;;;4978969;28;20187;-83
2020/12/14 10:20:55;;;;;;;14.30;2.77;;;12.70;99.90;;;;;;4979732;28;20192;-84
2020/12/14 10:23:21;;;;;;;13.10;2.70;;;12.90;99.90;;;;;;4978930;28;20622;-84
2020/12/14 10:25:47;;;;;;;30.40;3.60;;;13.10;99.90;;;;;;4995710;28;20194;-84
2020/12/14 10:28:12;;;;;;;34.73;4.93;;;13.30;99.90;;;;;;4978194;28;20661;-85
2020/12/14 10:30:39;;;;;;;23.90;3.37;;;13.70;99.90;;;;;;4978268;28;20235;-85
2020/12/14 10:33:05;;;;;;;14.17;3.00;;;14.10;99.90;;;;;;4978193;28;20652;-85
2020/12/14 10:35:32;;;;;;;5.83;2.00;;;14.30;99.90;;;;;;4978152;28;20261;-85
2020/12/14 10:37:57;;;;;;;10.17;1.83;;;14.30;99.90;;;;;;4978121;28;20634;-85
2020/12/14 10:40:27;;;;;;;10.87;2.03;;;14.70;99.90;;;;;;4978182;28;20189;-86
2020/12/14 10:42:53;;;;;;;16.30;2.03;;;15.20;99.90;;;;;;4995013;28;20301;-85
2020/12/14 10:45:20;;;;;;;7.13;1.80;;;15.80;99.90;;;;;;4978119;28;20641;-85
2020/12/14 10:47:45;;;;;;;10.73;1.80;;;16.20;99.90;;;;;;4977463;28;20201;-85
2020/12/14 10:50:13;;;;;;;7.60;1.87;;;16.70;99.90;;;;;;4978008;28;20203;-85
2020/12/14 10:52:39;;;;;;;9.37;1.87;;;16.90;99.90;;;;;;4977921;28;20178;-85
2020/12/14 10:55:04;;;;;;;3.73;1.63;;;16.40;99.90;;;;;;4977957;28;20209;-85
2020/12/14 10:57:30;;;;;;;4.03;1.70;;;16.10;99.90;;;;;;4977590;28;20213;-85
2020/12/14 11:00:02;;;;;;;4.93;1.50;;;16.10;99.90;;;;;;4976065;28;20648;-85
2020/12/14 11:02:28;;;;;;;5.00;1.30;;;16.10;99.90;;;;;;4976625;28;20186;-85
2020/12/14 11:04:54;;;;;;;5.17;1.80;;;15.90;99.90;;;;;;4976998;28;20194;-86
2020/12/14 11:07:19;;;;;;;4.53;1.43;;;15.60;99.90;;;;;;4976515;28;20209;-85
2020/12/14 11:09:46;;;;;;;5.53;1.60;;;15.70;99.90;;;;;;4977344;28;20186;-84
2020/12/14 11:12:11;;;;;;;7.83;1.60;;;15.70;99.90;;;;;;4977109;28;20513;-84
2020/12/14 11:14:37;;;;;;;4.83;1.57;;;15.10;99.90;;;;;;4977050;28;20190;-84
2020/12/14 11:17:03;;;;;;;2.80;1.60;;;14.80;99.90;;;;;;4977710;28;20190;-84
2020/12/14 11:19:29;;;;;;;5.53;1.47;;;14.50;99.90;;;;;;4977602;28;20248;-84
2020/12/14 11:21:55;;;;;;;5.43;1.70;;;14.20;99.90;;;;;;4977981;28;20229;-85
2020/12/14 11:24:22;;;;;;;5.00;1.70;;;13.80;99.90;;;;;;4977465;28;20224;-85
2020/12/14 11:26:48;;;;;;;7.47;1.63;;;13.50;99.90;;;;;;4977219;28;20169;-85
2020/12/14 11:29:14;;;;;;;6.27;1.60;;;13.30;99.90;;;;;;4977258;28;20181;-84
2020/12/14 11:31:42;;;;;;;4.20;1.87;;;13.20;99.90;;;;;;4977439;28;20262;-84
2020/12/14 11:34:08;;;;;;;3.80;1.93;;;13.10;99.90;;;;;;4977339;28;20203;-84
2020/12/14 11:36:33;;;;;;;3.90;1.80;;;12.90;99.90;;;;;;4976687;28;20221;-84
2020/12/14 11:38:59;;;;;;;5.50;2.10;;;12.90;99.90;;;;;;4977192;28;20178;-84
2020/12/14 11:41:28;;;;;;;4.07;1.83;;;12.90;99.90;;;;;;4977243;28;20183;-84
2020/12/14 11:43:54;;;;;;;6.23;2.20;;;12.90;99.90;;;;;;4977207;28;20196;-84
2020/12/14 11:46:20;;;;;;;6.03;2.03;;;13.00;99.90;;;;;;4977947;28;20209;-85
2020/12/14 11:48:46;;;;;;;4.47;2.30;;;13.10;99.90;;;;;;4977100;28;20278;-86
2020/12/14 11:51:12;;;;;;;4.83;2.13;;;13.00;99.90;;;;;;4977244;28;20184;-84
2020/12/14 11:53:38;;;;;;;9.00;2.20;;;12.90;99.90;;;;;;4977031;28;20181;-85
2020/12/14 11:56:04;;;;;;;8.20;1.90;;;12.80;99.90;;;;;;4977046;28;20230;-85
2020/12/14 11:58:29;;;;;;;5.77;2.27;;;12.90;99.90;;;;;;4976975;28;20276;-85
2020/12/14 12:00:55;;;;;;;7.73;2.13;;;12.80;99.90;;;;;;4977113;28;20189;-85
2020/12/14 12:03:20;;;;;;;6.20;2.23;;;12.90;99.90;;;;;;4977036;28;20181;-84
2020/12/14 12:05:47;;;;;;;7.27;2.63;;;12.90;99.90;;;;;;4977274;28;20193;-84
2020/12/14 12:08:15;;;;;;;4.87;2.47;;;12.90;99.90;;;;;;4976859;28;20185;-84
2020/12/14 12:10:42;;;;;;;2.97;2.00;;;12.90;99.90;;;;;;4993994;28;20587;-84
2020/12/14 12:13:07;;;;;;;4.77;2.20;;;12.70;99.90;;;;;;4976920;28;20205;-84
2020/12/14 12:15:33;;;;;;;6.33;2.30;;;12.80;99.90;;;;;;4976832;28;20679;-84
2020/12/14 12:17:59;;;;;;;6.60;2.33;;;12.80;99.90;;;;;;4976854;28;20174;-83
2020/12/14 12:20:25;;;;;;;7.53;2.43;;;12.50;99.90;;;;;;4994188;28;20246;-84
2020/12/14 12:22:52;;;;;;;5.70;2.40;;;12.50;99.90;;;;;;4976875;28;20184;-84
2020/12/14 12:25:17;;;;;;;5.60;2.60;;;12.70;99.90;;;;;;4976733;28;20655;-84
2020/12/14 12:27:43;;;;;;;5.87;3.30;;;12.60;99.90;;;;;;4977270;28;20178;-85
2020/12/14 12:30:09;;;;;;;7.73;3.47;;;12.50;99.90;;;;;;4976728;28;20188;-85
2020/12/14 12:32:34;;;;;;;5.33;3.43;;;12.50;99.90;;;;;;4976731;28;20267;-85
2020/12/14 12:35:00;;;;;;;5.27;3.03;;;12.50;99.90;;;;;;4976892;28;20212;-84
2020/12/14 12:37:26;;;;;;;6.23;2.93;;;12.60;99.90;;;;;;4976668;28;20181;-84
2020/12/14 12:39:51;;;;;;;5.80;3.13;;;12.60;99.90;;;;;;4976884;28;20180;-84
2020/12/14 12:42:18;;;;;;;9.60;2.90;;;12.50;99.90;;;;;;4976564;28;20341;-84
2020/12/14 12:44:46;;;;;;;10.53;3.17;;;12.50;99.90;;;;;;4976785;28;20259;-85
2020/12/14 12:47:12;;;;;;;5.83;2.80;;;12.60;99.90;;;;;;4977126;28;20206;-85
2020/12/14 12:49:39;;;;;;;8.37;2.63;;;12.50;99.90;;;;;;4980129;28;20264;-85
2020/12/14 12:52:04;;;;;;;6.53;3.03;;;12.50;99.90;;;;;;4980744;28;20189;-85
2020/12/14 12:54:31;;;;;;;8.27;2.27;;;12.30;99.90;;;;;;4979709;28;20178;-84